Time;durP1;ratioP1;P1;durP2;ratioP2;P2;SDS_P1;SDS_P2;PMS_P1;PMS_P2;Temp;Humidity;BMP_temperature;BMP_pressure;BME280_temperature;BME280_humidity;BME280_pressure;Samples;Min_cycle;Max_cycle;Signal;HPM_P1;HPM_P2
2023/04/05 00:02:17;;;;;;;;;9.75;8.25;25.90;32.90;;;;;;111330;1238;45499;-57
2023/04/05 00:04:56;;;;;;;;;9.00;8.00;25.90;32.90;;;;;;111205;1238;57013;-57
2023/04/05 00:07:25;;;;;;;;;8.67;7.67;26.00;32.90;;;;;;111251;1238;53839;-55
2023/04/05 00:09:52;;;;;;;;;9.75;8.75;26.00;32.80;;;;;;111250;1243;48834;-56
2023/04/05 00:12:19;;;;;;;;;9.00;8.00;26.00;32.70;;;;;;111322;1238;49933;-57
2023/04/05 00:14:47;;;;;;;;;11.00;10.00;26.10;33.20;;;;;;111290;1237;45835;-57
2023/04/05 00:17:14;;;;;;;;;10.50;8.00;26.00;32.60;;;;;;111275;1238;55761;-55
2023/04/05 00:19:41;;;;;;;;;10.00;7.00;26.00;32.80;;;;;;111263;1239;53272;-58
2023/04/05 00:22:09;;;;;;;;;7.75;6.75;26.00;32.50;;;;;;111352;1240;50525;-59
2023/04/05 00:24:42;;;;;;;;;8.25;7.25;26.00;32.50;;;;;;111304;1243;48534;-57
2023/04/05 00:27:09;;;;;;;;;9.00;8.00;26.00;32.10;;;;;;111205;1238;45410;-57
2023/04/05 00:29:36;;;;;;;;;8.75;7.75;26.00;32.50;;;;;;111218;1237;56010;-57
2023/04/05 00:32:03;;;;;;;;;8.75;8.00;26.00;32.50;;;;;;111198;1240;53396;-57
2023/04/05 00:34:32;;;;;;;;;7.25;6.00;25.90;32.40;;;;;;111234;1243;49516;-57
2023/04/05 00:36:59;;;;;;;;;9.00;8.00;26.00;32.50;;;;;;111288;1241;48546;-56
2023/04/05 00:39:26;;;;;;;;;8.00;7.00;25.90;32.40;;;;;;111244;1238;45945;-57
2023/04/05 00:41:53;;;;;;;;;8.00;7.00;25.90;32.40;;;;;;111326;1243;55555;-57
2023/04/05 00:44:20;;;;;;;;;8.00;7.00;25.90;32.30;;;;;;111295;1238;53903;-56
2023/04/05 00:46:48;;;;;;;;;10.50;8.00;25.80;32.30;;;;;;111249;1243;49203;-57
2023/04/05 00:49:15;;;;;;;;;9.00;7.75;25.80;31.80;;;;;;111373;1241;49050;-57
2023/04/05 00:51:42;;;;;;;;;8.00;7.00;25.80;32.30;;;;;;111162;1240;47653;-56
2023/04/05 00:54:10;;;;;;;;;8.00;7.00;25.70;32.20;;;;;;111245;1242;55617;-56
2023/04/05 00:56:37;;;;;;;;;8.00;7.00;25.70;32.40;;;;;;111219;1240;54574;-56
2023/04/05 00:59:04;;;;;;;;;9.50;8.75;25.60;32.20;;;;;;111308;1242;49510;-57
2023/04/05 01:01:33;;;;;;;;;9.00;8.00;25.60;32.20;;;;;;111222;1244;48958;-56
2023/04/05 01:04:01;;;;;;;;;8.75;7.75;25.50;32.20;;;;;;111259;1244;46399;-56
2023/04/05 01:06:50;;;;;;;;;8.00;7.00;25.50;32.40;;;;;;111246;1239;56256;-56
2023/04/05 01:09:32;;;;;;;;;10.50;9.50;25.50;32.20;;;;;;111127;1241;53459;-56
2023/04/05 01:12:04;;;;;;;;;10.25;7.75;25.40;32.20;;;;;;111090;1240;49173;-56
2023/04/05 01:14:32;;;;;;;;;8.75;7.75;25.40;32.20;;;;;;111041;1244;49432;-57
2023/04/05 01:16:59;;;;;;;;;8.75;7.75;25.30;32.10;;;;;;111233;1244;46602;-56
2023/04/05 01:19:27;;;;;;;;;10.50;7.75;25.30;32.20;;;;;;111238;1240;55757;-55
2023/04/05 01:22:12;;;;;;;;;8.75;7.75;25.20;31.70;;;;;;111245;1241;54199;-56
2023/04/05 01:25:05;;;;;;;;;9.00;8.00;25.20;32.10;;;;;;110987;1244;50561;-56
2023/04/05 01:27:41;;;;;;;;;7.00;6.00;25.20;32.30;;;;;;111107;1244;48604;-56
2023/04/05 01:30:22;;;;;;;;;8.00;7.00;25.20;32.50;;;;;;111195;1244;45274;-55
2023/04/05 01:33:25;;;;;;;;;9.00;8.00;25.20;32.50;;;;;;111147;1242;56588;-56
2023/04/05 01:36:02;;;;;;;;;7.00;6.00;25.20;33.00;;;;;;110944;1241;54198;-56
2023/04/05 01:38:30;;;;;;;;;8.00;7.00;25.20;32.50;;;;;;111131;1243;49552;-56
2023/04/05 01:40:58;;;;;;;;;8.00;7.00;25.30;32.60;;;;;;111075;1240;49961;-56
2023/04/05 01:43:25;;;;;;;;;8.75;7.75;25.40;32.60;;;;;;111048;1239;46151;-56
2023/04/05 01:45:52;;;;;;;;;9.00;7.75;25.40;32.60;;;;;;111196;1240;55859;-57
2023/04/05 01:48:19;;;;;;;;;9.50;8.25;25.40;32.60;;;;;;111316;1244;53704;-56
2023/04/05 01:50:47;;;;;;;;;8.50;7.00;25.50;32.80;;;;;;111330;1240;49708;-56
2023/04/05 01:53:15;;;;;;;;;8.75;7.75;25.50;32.60;;;;;;111133;1240;48322;-55
2023/04/05 01:55:41;;;;;;;;;8.75;7.75;25.60;32.60;;;;;;111185;1240;46161;-56
2023/04/05 01:58:09;;;;;;;;;9.75;8.75;25.70;32.60;;;;;;111234;1244;55418;-57
2023/04/05 02:00:36;;;;;;;;;8.00;7.00;25.80;32.60;;;;;;111161;1240;53926;-57
2023/04/05 02:03:03;;;;;;;;;8.75;7.00;25.80;32.80;;;;;;111187;1239;50181;-57
2023/04/05 02:05:30;;;;;;;;;8.25;7.25;25.90;32.60;;;;;;111157;1240;49997;-57
2023/04/05 02:07:57;;;;;;;;;8.00;7.00;25.90;32.60;;;;;;111411;1238;45214;-57
2023/04/05 02:10:24;;;;;;;;;8.67;7.67;26.00;32.70;;;;;;111407;1242;56423;-57
2023/04/05 02:12:51;;;;;;;;;8.00;7.00;26.00;32.60;;;;;;111410;1243;54111;-56
2023/04/05 02:15:18;;;;;;;;;8.75;7.75;26.10;32.80;;;;;;111479;1238;49323;-56
2023/04/05 02:17:45;;;;;;;;;8.00;7.00;26.10;32.50;;;;;;111393;1237;49861;-56
2023/04/05 02:20:13;;;;;;;;;9.00;8.00;26.10;32.50;;;;;;111375;1237;46420;-57
2023/04/05 02:22:40;;;;;;;;;9.75;8.75;26.20;32.50;;;;;;111540;1240;55440;-57
2023/04/05 02:25:08;;;;;;;;;8.25;7.50;26.20;32.40;;;;;;111447;1238;54000;-56
2023/04/05 02:27:35;;;;;;;;;8.00;7.00;26.20;32.50;;;;;;111440;1237;48519;-56
2023/04/05 02:30:03;;;;;;;;;8.33;7.67;26.20;32.30;;;;;;111487;1238;48392;-56
2023/04/05 02:32:30;;;;;;;;;8.75;7.75;26.20;32.20;;;;;;111472;1237;45961;-57
2023/04/05 02:34:57;;;;;;;;;8.67;7.67;26.30;32.20;;;;;;111503;1237;55703;-56
2023/04/05 02:37:25;;;;;;;;;8.25;7.00;26.20;32.10;;;;;;111427;1242;54083;-56
2023/04/05 02:39:53;;;;;;;;;8.00;7.00;26.20;32.10;;;;;;111439;1237;50362;-57
2023/04/05 02:42:20;;;;;;;;;8.00;7.00;26.20;32.10;;;;;;111438;1247;48851;-57
2023/04/05 02:44:47;;;;;;;;;8.00;7.00;26.20;32.00;;;;;;111463;1242;46407;-56
2023/04/05 02:47:20;;;;;;;;;8.50;7.50;26.20;32.00;;;;;;111500;1238;55904;-55
2023/04/05 02:49:50;;;;;;;;;8.00;7.00;26.10;32.00;;;;;;111400;1243;54636;-56
2023/04/05 02:52:17;;;;;;;;;8.00;7.00;26.10;32.00;;;;;;111440;1242;48938;-57
2023/04/05 02:54:45;;;;;;;;;8.00;7.00;26.10;32.00;;;;;;111455;1238;48720;-57
2023/04/05 02:57:12;;;;;;;;;8.00;7.00;26.10;32.00;;;;;;111448;1243;46421;-56
2023/04/05 02:59:39;;;;;;;;;8.75;7.75;26.00;31.90;;;;;;111447;1241;56201;-55
2023/04/05 03:02:08;;;;;;;;;8.00;7.00;26.00;31.90;;;;;;111408;1237;54168;-57
2023/04/05 03:04:35;;;;;;;;;7.00;6.00;26.00;31.90;;;;;;111445;1237;49347;-56
2023/04/05 03:07:03;;;;;;;;;8.00;6.75;25.90;31.90;;;;;;111424;1237;49173;-55
2023/04/05 03:09:33;;;;;;;;;8.00;7.00;25.90;31.90;;;;;;111437;1238;46096;-57
2023/04/05 03:12:02;;;;;;;;;7.75;6.75;25.90;31.90;;;;;;111546;1243;56005;-56
2023/04/05 03:14:30;;;;;;;;;8.25;7.00;25.80;31.30;;;;;;111382;1242;54606;-56
2023/04/05 03:16:57;;;;;;;;;9.00;8.00;25.80;31.80;;;;;;111597;1237;48543;-56
2023/04/05 03:19:25;;;;;;;;;8.25;7.00;25.70;31.70;;;;;;111429;1243;48833;-57
2023/04/05 03:21:52;;;;;;;;;8.75;7.00;25.70;32.00;;;;;;111635;1242;45891;-56
2023/04/05 03:24:19;;;;;;;;;9.00;8.00;25.70;31.70;;;;;;111484;1239;56091;-56
2023/04/05 03:26:47;;;;;;;;;10.75;8.00;25.60;32.20;;;;;;111465;1242;54200;-56
2023/04/05 03:29:15;;;;;;;;;8.75;7.75;25.50;31.90;;;;;;111458;1243;48597;-57
2023/04/05 03:31:43;;;;;;;;;9.00;8.00;25.50;31.80;;;;;;111444;1237;48995;-55
2023/04/05 03:34:10;;;;;;;;;9.50;8.50;25.50;31.80;;;;;;111445;1238;46262;-56
2023/04/05 03:36:42;;;;;;;;;8.67;8.00;25.40;31.80;;;;;;111450;1243;55460;-57
2023/04/05 03:39:12;;;;;;;;;8.67;7.67;25.40;31.90;;;;;;111437;1237;54002;-58
2023/04/05 03:41:39;;;;;;;;;8.00;7.00;25.30;31.90;;;;;;111435;1238;49716;-58
2023/04/05 03:44:07;;;;;;;;;7.75;6.75;25.30;31.90;;;;;;111394;1238;50264;-58
2023/04/05 03:46:36;;;;;;;;;8.00;7.00;25.30;31.90;;;;;;111397;1243;45770;-57
2023/04/05 03:49:03;;;;;;;;;7.25;6.50;25.20;32.20;;;;;;111412;1245;55322;-56
2023/04/05 03:51:31;;;;;;;;;10.00;7.33;25.20;32.10;;;;;;111407;1244;54048;-56
2023/04/05 03:53:58;;;;;;;;;8.00;7.00;25.20;32.20;;;;;;111423;1238;49843;-57
2023/04/05 03:56:26;;;;;;;;;8.67;7.67;25.30;32.30;;;;;;111441;1238;48664;-57
2023/04/05 03:58:53;;;;;;;;;8.67;7.67;25.30;32.30;;;;;;111404;1238;46149;-58
2023/04/05 04:01:20;;;;;;;;;8.00;7.00;25.30;32.40;;;;;;111371;1238;55831;-56
2023/04/05 04:03:47;;;;;;;;;7.75;6.75;25.40;32.40;;;;;;111364;1243;54360;-58
2023/04/05 04:06:14;;;;;;;;;8.00;6.00;25.40;32.40;;;;;;111461;1237;49528;-57
2023/04/05 04:08:41;;;;;;;;;7.00;6.00;25.40;32.30;;;;;;111438;1238;49240;-58
2023/04/05 04:11:10;;;;;;;;;8.00;7.00;25.50;32.40;;;;;;111455;1237;46652;-57
2023/04/05 04:13:36;;;;;;;;;10.00;7.00;25.50;32.40;;;;;;111246;1244;56530;-57
2023/04/05 04:16:04;;;;;;;;;8.75;7.75;25.50;32.30;;;;;;111489;1239;54193;-58
2023/04/05 04:18:31;;;;;;;;;10.50;8.00;25.60;32.40;;;;;;111443;1237;49588;-57
2023/04/05 04:21:05;;;;;;;;;11.75;10.00;25.70;33.20;;;;;;111304;1242;49426;-57
2023/04/05 04:23:33;;;;;;;;;18.00;13.50;25.70;33.70;;;;;;111189;1245;45959;-56
2023/04/05 04:26:01;;;;;;;;;26.75;20.75;25.80;34.00;;;;;;111364;1237;55057;-57
2023/04/05 04:28:28;;;;;;;;;20.50;16.25;25.90;35.90;;;;;;111101;1242;54107;-58
2023/04/05 04:30:55;;;;;;;;;26.33;18.67;25.90;36.20;;;;;;111475;1238;49709;-58
2023/04/05 04:33:22;;;;;;;;;30.00;20.67;26.00;36.70;;;;;;111385;1239;48990;-57
2023/04/05 04:35:53;;;;;;;;;30.67;18.67;26.10;36.50;;;;;;111395;1237;46437;-60
2023/04/05 04:38:20;;;;;;;;;24.25;15.75;26.10;36.10;;;;;;111374;1237;56373;-58
2023/04/05 04:40:49;;;;;;;;;20.25;16.75;26.10;35.70;;;;;;111358;1243;54176;-59
2023/04/05 04:43:16;;;;;;;;;28.33;19.33;26.20;36.40;;;;;;111355;1243;50880;-58
2023/04/05 04:45:48;;;;;;;;;20.75;16.75;26.20;36.40;;;;;;111298;1238;49062;-59
2023/04/05 04:48:15;;;;;;;;;39.50;26.00;26.20;38.80;;;;;;111196;1238;45621;-58
2023/04/05 04:50:43;;;;;;;;;71.50;43.25;26.20;39.50;;;;;;111374;1243;55382;-58
2023/04/05 04:53:12;;;;;;;;;51.50;36.75;26.20;39.50;;;;;;111320;1243;53677;-58
2023/04/05 04:55:42;;;;;;;;;40.50;26.25;26.10;38.40;;;;;;111560;1237;49285;-59
2023/04/05 04:58:11;;;;;;;;;40.00;29.50;26.10;38.10;;;;;;111213;1238;49832;-58
2023/04/05 05:00:39;;;;;;;;;31.33;25.00;26.10;37.60;;;;;;111703;1237;45738;-58
2023/04/05 05:03:07;;;;;;;;;28.00;20.00;26.10;37.20;;;;;;111481;1240;56358;-58
2023/04/05 05:05:34;;;;;;;;;30.00;22.33;26.10;36.80;;;;;;111257;1239;53548;-58
2023/04/05 05:08:01;;;;;;;;;23.25;19.00;26.00;36.50;;;;;;111123;1242;49847;-61
2023/04/05 05:10:28;;;;;;;;;32.67;23.33;25.90;36.20;;;;;;111348;1243;49853;-59
2023/04/05 05:12:55;;;;;;;;;30.75;24.00;25.90;36.10;;;;;;111422;1243;45234;-58
2023/04/05 05:15:22;;;;;;;;;59.25;33.50;25.80;36.00;;;;;;111312;1243;56273;-59
2023/04/05 05:17:51;;;;;;;;;54.67;34.67;25.70;35.90;;;;;;111106;1243;54617;-58
2023/04/05 05:20:19;;;;;;;;;38.50;28.75;25.60;35.80;;;;;;111442;1243;49101;-58
2023/04/05 05:22:45;;;;;;;;;45.00;26.50;25.60;35.60;;;;;;111340;1242;49117;-59
2023/04/05 05:25:12;;;;;;;;;37.50;25.00;25.50;35.00;;;;;;111381;1242;45535;-59
2023/04/05 05:27:40;;;;;;;;;41.50;25.50;25.50;35.40;;;;;;111196;1239;56107;-59
2023/04/05 05:30:08;;;;;;;;;33.33;24.67;25.40;35.20;;;;;;111404;1238;53976;-59
2023/04/05 05:32:35;;;;;;;;;25.25;22.00;25.40;35.00;;;;;;111386;1243;50274;-57
2023/04/05 05:35:02;;;;;;;;;25.50;23.00;25.30;34.90;;;;;;111444;1243;49148;-58
2023/04/05 05:37:32;;;;;;;;;26.25;20.50;25.20;34.70;;;;;;111470;1242;45436;-59
2023/04/05 05:39:59;;;;;;;;;22.00;18.00;25.20;34.70;;;;;;111422;1242;54948;-60
2023/04/05 05:42:26;;;;;;;;;22.00;18.00;25.10;35.10;;;;;;111284;1243;53524;-60
2023/04/05 05:44:53;;;;;;;;;27.00;20.67;25.00;35.60;;;;;;111496;1242;49606;-60
2023/04/05 05:47:20;;;;;;;;;20.75;16.00;24.90;35.00;;;;;;111345;1243;49577;-58
2023/04/05 05:49:48;;;;;;;;;22.25;18.25;24.90;35.00;;;;;;111457;1242;45844;-59
2023/04/05 05:52:15;;;;;;;;;23.67;20.67;24.80;35.50;;;;;;111405;1238;56363;-61
2023/04/05 05:54:42;;;;;;;;;27.00;19.50;24.70;34.90;;;;;;111454;1237;54973;-61
2023/04/05 05:57:09;;;;;;;;;25.33;19.67;24.60;34.60;;;;;;111418;1242;49449;-61
2023/04/05 05:59:36;;;;;;;;;21.00;14.00;24.60;34.60;;;;;;111530;1243;49142;-61
2023/04/05 06:02:03;;;;;;;;;18.25;14.75;24.60;34.50;;;;;;111475;1237;45735;-61
2023/04/05 06:04:30;;;;;;;;;18.00;15.75;24.50;34.30;;;;;;111369;1244;54917;-60
2023/04/05 06:06:57;;;;;;;;;17.75;14.75;24.50;34.40;;;;;;111540;1238;53707;-61
2023/04/05 06:09:25;;;;;;;;;16.00;15.00;24.50;34.30;;;;;;111469;1243;49925;-61
2023/04/05 06:11:52;;;;;;;;;19.25;14.75;24.40;34.20;;;;;;111450;1242;49989;-60
2023/04/05 06:14:19;;;;;;;;;17.75;13.75;24.40;34.30;;;;;;111381;1242;45747;-60
2023/04/05 06:16:46;;;;;;;;;15.50;13.75;24.40;34.30;;;;;;111404;1242;55839;-60
2023/04/05 06:19:13;;;;;;;;;19.50;14.25;24.40;34.30;;;;;;111416;1242;54851;-62
2023/04/05 06:21:40;;;;;;;;;17.00;14.00;24.40;34.30;;;;;;111245;1244;49311;-61
2023/04/05 06:24:07;;;;;;;;;21.33;16.33;24.40;34.00;;;;;;111449;1242;49052;-61
2023/04/05 06:26:34;;;;;;;;;20.67;14.00;24.30;33.80;;;;;;111472;1238;45840;-60
2023/04/05 06:29:01;;;;;;;;;17.75;15.25;24.30;33.80;;;;;;111311;1243;55423;-61
2023/04/05 06:31:33;;;;;;;;;22.25;15.50;24.20;33.90;;;;;;111429;1238;53718;-60
2023/04/05 06:34:00;;;;;;;;;16.67;15.33;24.20;34.00;;;;;;111423;1244;49095;-62
2023/04/05 06:36:30;;;;;;;;;15.00;12.00;24.20;33.70;;;;;;111265;1240;49484;-61
2023/04/05 06:38:58;;;;;;;;;16.50;12.25;24.10;33.50;;;;;;111485;1237;46594;-60
2023/04/05 06:41:26;;;;;;;;;17.00;13.25;24.10;33.50;;;;;;111504;1237;56144;-60
2023/04/05 06:43:53;;;;;;;;;17.67;15.33;24.00;33.40;;;;;;111449;1243;53693;-62
2023/04/05 06:46:21;;;;;;;;;15.33;12.67;24.00;33.60;;;;;;111531;1238;48971;-61
2023/04/05 06:48:49;;;;;;;;;12.25;11.00;24.00;33.80;;;;;;111554;1238;49691;-61
2023/04/05 06:51:16;;;;;;;;;17.50;14.75;24.00;33.70;;;;;;111222;1243;45598;-61
2023/04/05 06:53:43;;;;;;;;;17.00;14.00;23.90;33.50;;;;;;111391;1242;55378;-59
2023/04/05 06:56:10;;;;;;;;;14.50;12.00;23.90;34.00;;;;;;111302;1238;54289;-61
2023/04/05 06:58:37;;;;;;;;;20.33;16.00;23.80;33.50;;;;;;111411;1238;50467;-61
2023/04/05 07:01:04;;;;;;;;;15.00;13.00;23.80;33.50;;;;;;111382;1237;50373;-60
2023/04/05 07:03:31;;;;;;;;;13.75;13.00;23.80;33.40;;;;;;111418;1242;46411;-60
2023/04/05 07:05:59;;;;;;;;;14.75;13.00;23.80;33.40;;;;;;111482;1243;56022;-61
2023/04/05 07:08:28;;;;;;;;;17.00;12.50;23.70;33.30;;;;;;111403;1238;54019;-61
2023/04/05 07:10:55;;;;;;;;;17.33;14.33;23.70;33.30;;;;;;111492;1238;49928;-62
2023/04/05 07:13:23;;;;;;;;;15.50;11.00;23.70;33.10;;;;;;111418;1244;49971;-62
2023/04/05 07:15:51;;;;;;;;;14.33;13.00;23.70;33.20;;;;;;111219;1239;46713;-61
2023/04/05 07:18:18;;;;;;;;;15.00;13.75;23.70;33.10;;;;;;111374;1243;55882;-62
2023/04/05 07:20:47;;;;;;;;;14.75;13.50;23.70;33.20;;;;;;110872;1242;640215;-61
2023/04/05 07:23:16;;;;;;;;;14.00;12.00;23.70;33.40;;;;;;111409;1238;50457;-60
2023/04/05 07:25:44;;;;;;;;;14.00;12.75;23.70;33.10;;;;;;111403;1238;49863;-60
2023/04/05 07:28:11;;;;;;;;;15.75;11.75;23.60;33.30;;;;;;111521;1242;45804;-61
2023/04/05 07:30:39;;;;;;;;;13.67;12.00;23.60;33.20;;;;;;111370;1243;56487;-60
2023/04/05 07:33:06;;;;;;;;;13.00;12.00;23.50;33.90;;;;;;111507;1238;53954;-64
2023/04/05 07:35:32;;;;;;;;;11.75;10.50;23.50;34.40;;;;;;111381;1237;49497;-61
2023/04/05 07:38:00;;;;;;;;;17.25;14.00;23.40;34.20;;;;;;111561;1243;49296;-61
2023/04/05 07:40:27;;;;;;;;;13.25;12.00;23.40;34.70;;;;;;111371;1238;45848;-60
2023/04/05 07:42:54;;;;;;;;;15.00;12.00;23.40;34.80;;;;;;111496;1237;55152;-61
2023/04/05 07:45:21;;;;;;;;;13.25;11.25;23.40;34.60;;;;;;111522;1242;53899;-62
2023/04/05 07:47:48;;;;;;;;;13.00;12.00;23.40;35.20;;;;;;111527;1238;49796;-61
2023/04/05 07:50:15;;;;;;;;;13.75;12.75;23.30;35.20;;;;;;111520;1238;49257;-62
2023/04/05 07:52:42;;;;;;;;;14.50;13.50;23.30;35.40;;;;;;111434;1243;45209;-63
2023/04/05 07:55:09;;;;;;;;;13.00;11.25;23.30;35.30;;;;;;111562;1242;55492;-63
2023/04/05 07:57:36;;;;;;;;;12.75;11.75;23.30;35.30;;;;;;111496;1240;54242;-61
2023/04/05 08:00:09;;;;;;;;;14.00;11.75;23.30;35.00;;;;;;111404;1237;50254;-62
2023/04/05 08:02:36;;;;;;;;;15.00;11.50;23.40;35.20;;;;;;111476;1244;50134;-61
2023/04/05 08:05:17;;;;;;;;;13.75;11.25;23.40;35.30;;;;;;110784;1243;45320;-61
2023/04/05 08:07:44;;;;;;;;;16.67;12.00;23.40;35.50;;;;;;111293;1238;55944;-61
2023/04/05 08:10:11;;;;;;;;;10.67;9.67;23.40;35.20;;;;;;111476;1242;54762;-61
2023/04/05 08:12:38;;;;;;;;;12.33;11.00;23.50;35.40;;;;;;111476;1238;49587;-61
2023/04/05 08:15:05;;;;;;;;;10.67;9.67;23.50;35.70;;;;;;111481;1239;49528;-60
2023/04/05 08:17:32;;;;;;;;;12.00;11.00;23.50;35.50;;;;;;111429;1238;45494;-59
2023/04/05 08:19:59;;;;;;;;;11.00;9.75;23.50;35.50;;;;;;111391;1242;55953;-61
2023/04/05 08:22:28;;;;;;;;;13.00;11.67;23.60;35.50;;;;;;111830;1237;53998;-61
2023/04/05 08:24:55;;;;;;;;;13.00;10.50;23.60;35.90;;;;;;111855;1242;49483;-61
2023/04/05 08:27:22;;;;;;;;;15.25;14.00;23.60;35.60;;;;;;112342;1242;49734;-62
2023/04/05 08:29:49;;;;;;;;;12.50;10.25;23.70;35.60;;;;;;111407;1237;45624;-60
2023/04/05 08:32:16;;;;;;;;;12.33;11.33;23.80;35.60;;;;;;111447;1243;56019;-62
2023/04/05 08:34:43;;;;;;;;;12.75;11.00;23.80;35.80;;;;;;111380;1239;54197;-61
2023/04/05 08:37:10;;;;;;;;;12.00;11.00;23.70;35.70;;;;;;111456;1238;49685;-59
2023/04/05 08:39:36;;;;;;;;;13.50;10.75;23.70;35.60;;;;;;111433;1243;49171;-60
2023/04/05 08:42:11;;;;;;;;;13.00;10.00;23.60;36.20;;;;;;111381;1238;46183;-60
2023/04/05 08:44:40;;;;;;;;;11.75;10.75;23.60;36.20;;;;;;111238;1243;55584;-60
2023/04/05 08:47:09;;;;;;;;;12.75;11.75;23.50;36.10;;;;;;111207;1243;54056;-59
2023/04/05 08:49:36;;;;;;;;;14.00;10.00;23.50;36.10;;;;;;111771;1242;49577;-61
2023/04/05 08:52:04;;;;;;;;;13.00;12.00;23.50;36.10;;;;;;111481;1237;49005;-60
2023/04/05 08:54:31;;;;;;;;;12.75;11.75;23.50;36.00;;;;;;111455;1237;45808;-60
2023/04/05 08:56:59;;;;;;;;;14.75;11.50;23.50;36.00;;;;;;111506;1238;55844;-60
2023/04/05 08:59:27;;;;;;;;;12.75;10.75;23.50;36.20;;;;;;111588;1243;54887;-61
2023/04/05 09:01:55;;;;;;;;;13.00;12.00;23.50;36.10;;;;;;111264;1243;49562;-61
2023/04/05 09:04:23;;;;;;;;;10.25;9.00;23.50;36.00;;;;;;111510;1238;49810;-60
2023/04/05 09:06:51;;;;;;;;;15.00;14.00;23.50;35.90;;;;;;111455;1243;45835;-62
2023/04/05 09:09:19;;;;;;;;;14.00;13.00;23.50;35.90;;;;;;111531;1237;55544;-60
2023/04/05 09:11:47;;;;;;;;;11.00;9.75;23.50;36.00;;;;;;111545;1238;54708;-61
2023/04/05 09:14:16;;;;;;;;;14.50;11.75;23.60;36.00;;;;;;111528;1242;49703;-61
2023/04/05 09:16:43;;;;;;;;;13.25;11.00;23.60;35.90;;;;;;111590;1242;49439;-61
2023/04/05 09:19:10;;;;;;;;;11.75;10.75;23.60;35.90;;;;;;111525;1242;45967;-61
2023/04/05 09:21:59;;;;;;;;;13.00;11.67;23.60;35.90;;;;;;111505;1238;55449;-60
2023/04/05 09:24:30;;;;;;;;;12.00;10.00;23.60;36.10;;;;;;111323;1237;53548;-60
2023/04/05 09:27:10;;;;;;;;;17.50;13.75;23.60;36.00;;;;;;111416;1239;50530;-60
2023/04/05 09:29:39;;;;;;;;;14.00;12.00;23.60;36.00;;;;;;111354;1243;49701;-60
2023/04/05 09:32:08;;;;;;;;;14.00;13.00;23.60;36.00;;;;;;111521;1243;45544;-61
2023/04/05 09:34:36;;;;;;;;;12.75;11.75;23.60;36.30;;;;;;111484;1242;55888;-60
2023/04/05 09:37:13;;;;;;;;;14.50;11.50;23.60;36.10;;;;;;111522;1238;53890;-60
2023/04/05 09:39:40;;;;;;;;;17.25;14.75;23.60;36.00;;;;;;111484;1238;49196;-60
2023/04/05 09:42:13;;;;;;;;;16.50;15.00;23.60;35.90;;;;;;111539;1243;49666;-60
2023/04/05 09:44:50;;;;;;;;;17.75;14.50;23.60;35.30;;;;;;111510;1237;45217;-60
2023/04/05 09:47:18;;;;;;;;;18.67;16.67;23.60;35.40;;;;;;111458;1238;55017;-60
2023/04/05 09:49:46;;;;;;;;;19.25;16.25;23.60;35.00;;;;;;111462;1243;53246;-60
2023/04/05 09:52:21;;;;;;;;;23.25;17.25;23.60;35.00;;;;;;111454;1242;50453;-61
2023/04/05 09:54:51;;;;;;;;;16.50;15.00;23.60;35.00;;;;;;111465;1237;48955;-60
2023/04/05 09:57:18;;;;;;;;;17.00;16.00;23.60;35.00;;;;;;111328;1243;45554;-60
2023/04/05 09:59:46;;;;;;;;;20.50;15.75;23.50;34.90;;;;;;111288;1243;55985;-60
2023/04/05 10:02:14;;;;;;;;;19.00;16.25;23.50;34.90;;;;;;111458;1242;54774;-59
2023/04/05 10:04:47;;;;;;;;;17.00;16.00;23.50;34.80;;;;;;111808;1238;49167;-60
2023/04/05 10:07:16;;;;;;;;;16.75;15.00;23.50;34.80;;;;;;111898;1238;49316;-60
2023/04/05 10:09:46;;;;;;;;;15.50;13.25;23.50;34.70;;;;;;111692;1243;45757;-61
2023/04/05 10:12:23;;;;;;;;;19.25;18.00;23.50;34.70;;;;;;111557;1238;55472;-60
2023/04/05 10:14:50;;;;;;;;;18.75;17.50;23.50;34.80;;;;;;111418;1245;53986;-60
2023/04/05 10:17:30;;;;;;;;;16.00;14.33;23.50;34.50;;;;;;111418;1243;49147;-58
2023/04/05 10:20:12;;;;;;;;;19.75;17.50;23.40;34.50;;;;;;111472;1240;49728;-62
2023/04/05 10:23:02;;;;;;;;;19.50;18.25;23.40;34.50;;;;;;111651;1239;46613;-59
2023/04/05 10:25:50;;;;;;;;;22.75;17.00;23.40;34.50;;;;;;111417;1243;55266;-60
2023/04/05 10:28:36;;;;;;;;;19.50;17.75;23.40;35.00;;;;;;111550;1242;54495;-60
2023/04/05 10:31:12;;;;;;;;;18.75;17.75;23.40;35.00;;;;;;111628;1242;49788;-61
2023/04/05 10:33:46;;;;;;;;;18.75;16.50;23.40;34.50;;;;;;111466;1238;50399;-61
2023/04/05 10:36:19;;;;;;;;;16.50;15.00;23.40;34.20;;;;;;111620;1237;45129;-61
2023/04/05 10:38:46;;;;;;;;;17.33;16.00;23.40;34.30;;;;;;111585;1238;56074;-59
2023/04/05 10:41:13;;;;;;;;;21.25;18.75;23.40;34.30;;;;;;111422;1237;54811;-59
2023/04/05 10:43:41;;;;;;;;;17.00;16.00;23.40;34.40;;;;;;111465;1238;50439;-59
2023/04/05 10:46:10;;;;;;;;;19.25;18.00;23.40;34.40;;;;;;111477;1238;49379;-58
2023/04/05 10:48:49;;;;;;;;;18.00;17.00;23.30;34.30;;;;;;111479;1238;45933;-59
2023/04/05 10:51:17;;;;;;;;;21.00;18.25;23.30;33.90;;;;;;111431;1241;55550;-61
2023/04/05 10:53:45;;;;;;;;;19.50;17.50;23.30;34.40;;;;;;111359;1237;53965;-61
2023/04/05 10:56:12;;;;;;;;;22.50;21.25;23.30;34.50;;;;;;111380;1239;49183;-61
2023/04/05 10:58:41;;;;;;;;;21.25;18.75;23.30;34.80;;;;;;111449;1242;49537;-59
2023/04/05 11:01:08;;;;;;;;;22.00;18.75;23.30;35.30;;;;;;111416;1239;46924;-60
2023/04/05 11:03:47;;;;;;;;;18.25;16.75;23.30;34.60;;;;;;111349;1240;56360;-60
2023/04/05 11:06:31;;;;;;;;;19.50;17.00;23.30;34.90;;;;;;111440;1243;53119;-60
2023/04/05 11:09:15;;;;;;;;;18.67;17.00;23.20;34.80;;;;;;111475;1242;50820;-60
2023/04/05 11:11:43;;;;;;;;;20.00;19.00;23.20;34.70;;;;;;111331;1238;49227;-60
2023/04/05 11:14:22;;;;;;;;;19.00;17.25;23.20;34.70;;;;;;111431;1243;45279;-60
2023/04/05 11:16:55;;;;;;;;;17.75;16.25;23.20;34.90;;;;;;111315;1243;55134;-62
2023/04/05 11:19:44;;;;;;;;;22.00;20.33;23.20;34.80;;;;;;111354;1237;53196;-60
2023/04/05 11:22:12;;;;;;;;;20.25;18.75;23.20;34.80;;;;;;111363;1238;50006;-61
2023/04/05 11:24:50;;;;;;;;;16.00;15.00;23.20;34.60;;;;;;111917;1243;49766;-62
2023/04/05 11:27:26;;;;;;;;;21.50;19.75;23.20;34.60;;;;;;111255;1242;46243;-61
2023/04/05 11:29:54;;;;;;;;;20.00;18.00;23.20;34.90;;;;;;111481;1238;54942;-62
2023/04/05 11:32:22;;;;;;;;;20.00;18.00;23.20;34.20;;;;;;111513;1237;54315;-62
2023/04/05 11:35:01;;;;;;;;;18.50;17.50;23.20;34.10;;;;;;111447;1243;49384;-62
2023/04/05 11:37:59;;;;;;;;;20.00;18.67;23.20;34.80;;;;;;111202;1244;49598;-61
2023/04/05 11:40:31;;;;;;;;;21.50;20.00;23.20;34.40;;;;;;111452;1237;45854;-62
2023/04/05 11:43:07;;;;;;;;;22.00;18.00;23.20;34.20;;;;;;111284;1237;56558;-62
2023/04/05 11:45:36;;;;;;;;;21.50;19.75;23.10;34.20;;;;;;111374;1238;54219;-61
2023/04/05 11:48:10;;;;;;;;;22.25;20.00;23.10;34.00;;;;;;111464;1238;49222;-60
2023/04/05 11:50:43;;;;;;;;;23.50;21.00;23.10;34.10;;;;;;111382;1243;50629;-62
2023/04/05 11:53:15;;;;;;;;;18.25;17.25;23.20;34.00;;;;;;111446;1243;45281;-61
2023/04/05 11:55:47;;;;;;;;;22.25;19.00;23.20;34.10;;;;;;111358;1237;56136;-63
2023/04/05 11:58:16;;;;;;;;;21.00;17.25;23.20;34.10;;;;;;111519;1241;53889;-61
2023/04/05 12:00:44;;;;;;;;;19.00;17.00;23.10;33.80;;;;;;111375;1238;49710;-59
2023/04/05 12:03:13;;;;;;;;;17.50;16.00;23.20;33.50;;;;;;111542;1242;49672;-60
2023/04/05 12:05:54;;;;;;;;;18.67;17.33;23.10;33.70;;;;;;111558;1243;45962;-58
2023/04/05 12:08:22;;;;;;;;;20.75;17.75;23.10;33.90;;;;;;111342;1243;56560;-59
2023/04/05 12:10:54;;;;;;;;;21.50;20.25;23.10;34.20;;;;;;111520;1237;53845;-60
2023/04/05 12:13:29;;;;;;;;;21.50;20.25;23.10;34.40;;;;;;111438;1240;49464;-59
2023/04/05 12:15:59;;;;;;;;;19.00;18.00;23.10;34.80;;;;;;111438;1238;50395;-59
2023/04/05 12:18:27;;;;;;;;;21.25;18.25;23.10;34.80;;;;;;111375;1237;46526;-59
2023/04/05 12:20:54;;;;;;;;;19.00;17.00;23.00;34.80;;;;;;111396;1243;56822;-59
2023/04/05 12:23:22;;;;;;;;;21.75;19.50;23.00;34.90;;;;;;111327;1244;53437;-60
2023/04/05 12:25:50;;;;;;;;;22.25;21.50;23.00;34.60;;;;;;111474;1238;50444;-60
2023/04/05 12:28:18;;;;;;;;;20.00;19.00;23.00;34.90;;;;;;111486;1238;49609;-60
2023/04/05 12:30:52;;;;;;;;;24.50;20.25;23.00;35.00;;;;;;111411;1238;45526;-59
2023/04/05 12:33:29;;;;;;;;;22.00;20.75;23.00;34.90;;;;;;111403;1242;55346;-59
2023/04/05 12:35:56;;;;;;;;;19.00;18.00;23.00;34.90;;;;;;111280;1243;54873;-61